Terminal Aerodrome Forecast
Issued by NWS

Home | Current Version | Previous Version | Text Only | Print | Product List | Glossary On
Versions: 1 2 3 4 5 6 7 8 9 10 11 12 13 14 15 16 17
201
FTUS43 KEAX 262320
TAFSTJ
TAF
KSTJ 262320Z 2700/2724 33010KT P6SM OVC035
     FM270900 31007KT P6SM SCT060
     FM271300 27006KT P6SM FEW200
     FM272000 22006KT P6SM BKN090=

USA.gov is the U.S. government's official web portal to all federal, state and local government web resources and services.